Time;durP1;ratioP1;P1;durP2;ratioP2;P2;SDS_P1;SDS_P2;PMS_P1;PMS_P2;Temp;Humidity;BMP_temperature;BMP_pressure;BME280_temperature;BME280_humidity;BME280_pressure;Samples;Min_cycle;Max_cycle;Signal;HPM_P1;HPM_P2
2022/06/13 00:00:59;;;;;;;11.90;2.93;;;14.10;1.00;;;;;;5033567;28;20283;-63
2022/06/13 00:03:26;;;;;;;5.37;2.73;;;14.10;6.50;;;;;;5033040;28;20596;-63
2022/06/13 00:05:53;;;;;;;5.53;2.73;;;14.00;46.90;;;;;;5033023;28;20233;-62
2022/06/13 00:08:21;;;;;;;11.03;3.27;;;14.00;99.90;;;;;;5033141;28;20216;-62
2022/06/13 00:10:47;;;;;;;9.63;3.20;;;13.90;99.90;;;;;;5033294;28;20600;-62
2022/06/13 00:13:14;;;;;;;10.03;3.30;;;13.90;99.90;;;;;;5033089;28;20212;-62
2022/06/13 00:15:41;;;;;;;9.03;3.30;;;13.80;99.90;;;;;;5032803;28;20774;-63
2022/06/13 00:18:08;;;;;;;5.13;2.60;;;13.80;1.00;;;;;;5032975;28;20282;-62
2022/06/13 00:20:35;;;;;;;6.40;2.67;;;13.80;1.00;;;;;;5032987;28;20251;-63
2022/06/13 00:23:02;;;;;;;8.40;3.00;;;13.70;97.30;;;;;;5033106;28;20212;-62
2022/06/13 00:25:30;;;;;;;5.43;2.87;;;13.60;99.90;;;;;;5032522;28;20229;-62
2022/06/13 00:27:57;;;;;;;12.20;3.57;;;13.60;38.70;;;;;;5032428;28;20628;-62
2022/06/13 00:30:24;;;;;;;7.60;3.00;;;13.50;99.90;;;;;;5032430;28;20221;-62
2022/06/13 00:32:51;;;;;;;7.50;2.87;;;13.40;99.90;;;;;;5033026;28;20583;-62
2022/06/13 00:35:18;;;;;;;6.47;2.80;;;13.30;90.40;;;;;;5032617;28;20279;-62
2022/06/13 00:37:45;;;;;;;10.90;3.23;;;13.30;67.50;;;;;;5032267;28;20771;-62
2022/06/13 00:40:12;;;;;;;8.07;3.07;;;13.20;99.90;;;;;;5032274;28;20213;-62
2022/06/13 00:42:41;;;;;;;7.40;3.30;;;13.20;99.90;;;;;;5032485;28;20270;-62
2022/06/13 00:45:16;;;;;;;11.13;3.27;;;13.10;6.90;;;;;;5032317;28;20238;-62
2022/06/13 00:47:46;;;;;;;8.97;3.53;;;13.00;1.00;;;;;;5032181;28;20215;-62
2022/06/13 00:50:18;;;;;;;8.73;2.90;;;13.00;44.70;;;;;;5032417;28;20203;-62
2022/06/13 00:52:49;;;;;;;6.27;3.40;;;13.00;1.00;;;;;;5032345;28;20237;-62
2022/06/13 00:55:21;;;;;;;11.40;3.20;;;13.00;1.00;;;;;;5032251;28;20222;-62
2022/06/13 00:57:50;;;;;;;6.33;3.63;;;12.90;1.00;;;;;;5032002;28;20213;-62
2022/06/13 01:00:20;;;;;;;7.43;3.60;;;12.80;1.00;;;;;;5032416;28;20265;-63
2022/06/13 01:02:48;;;;;;;8.87;3.20;;;12.80;75.30;;;;;;5032088;28;20296;-62
2022/06/13 01:05:17;;;;;;;7.33;3.40;;;12.70;99.90;;;;;;5032085;28;20640;-63
2022/06/13 01:07:45;;;;;;;11.40;4.07;;;12.70;1.00;;;;;;5031567;28;20214;-62
2022/06/13 01:12:57;;;;;;;7.33;3.17;;;12.60;1.00;;;;;;5032064;28;20233;-62
2022/06/13 01:15:38;;;;;;;8.63;3.30;;;12.60;99.90;;;;;;5031745;28;20772;-62
2022/06/13 01:18:21;;;;;;;6.33;3.20;;;12.50;99.90;;;;;;5031663;28;20272;-62
2022/06/13 01:21:03;;;;;;;9.40;3.30;;;12.50;99.90;;;;;;5032612;28;20207;-62
2022/06/13 01:23:49;;;;;;;7.47;3.07;;;12.50;99.90;;;;;;5032378;28;20206;-62
2022/06/13 01:26:38;;;;;;;9.13;3.33;;;12.40;1.00;;;;;;5031433;28;20233;-62
2022/06/13 01:29:43;;;;;;;7.60;3.67;;;12.40;1.00;;;;;;5031955;28;20210;-62
2022/06/13 01:32:24;;;;;;;6.60;2.87;;;12.40;69.00;;;;;;5008495;28;20720;-62
2022/06/13 01:35:02;;;;;;;7.83;3.10;;;12.30;99.90;;;;;;5031734;28;20222;-62
2022/06/13 01:37:43;;;;;;;10.43;2.97;;;12.30;99.90;;;;;;5032086;28;20209;-62
2022/06/13 01:40:21;;;;;;;7.90;3.13;;;12.30;1.00;;;;;;5038388;28;20267;-62
2022/06/13 01:42:57;;;;;;;5.47;3.47;;;12.20;1.00;;;;;;5038265;28;20598;-62
2022/06/13 01:45:34;;;;;;;9.10;3.73;;;12.20;99.90;;;;;;5038320;28;20225;-62
2022/06/13 01:48:07;;;;;;;6.33;3.27;;;12.20;99.90;;;;;;5038240;28;20259;-62
2022/06/13 01:50:41;;;;;;;11.70;3.50;;;12.20;1.00;;;;;;5038147;28;20206;-62
2022/06/13 01:53:19;;;;;;;7.10;3.73;;;12.20;1.00;;;;;;5038416;28;20256;-62
2022/06/13 01:55:51;;;;;;;5.63;3.50;;;12.20;99.90;;;;;;5037878;28;20716;-62
2022/06/13 01:58:24;;;;;;;6.57;3.33;;;12.20;99.90;;;;;;5038038;28;20209;-62
2022/06/13 02:00:56;;;;;;;7.50;3.30;;;12.20;99.90;;;;;;5038225;28;20210;-62
2022/06/13 02:03:32;;;;;;;5.43;3.37;;;12.20;99.90;;;;;;5038319;28;20203;-63
2022/06/13 02:06:03;;;;;;;8.83;3.33;;;12.20;1.00;;;;;;5037843;28;20260;-62
2022/06/13 02:08:34;;;;;;;5.40;3.37;;;12.20;1.00;;;;;;5038215;28;20207;-62
2022/06/13 02:11:04;;;;;;;9.70;4.07;;;12.20;94.60;;;;;;5038081;28;20268;-62
2022/06/13 02:13:38;;;;;;;6.90;3.57;;;12.20;99.90;;;;;;5038324;28;20241;-62
2022/06/13 02:16:09;;;;;;;5.77;3.20;;;12.20;99.90;;;;;;5037529;28;20594;-62
2022/06/13 02:18:44;;;;;;;10.03;3.73;;;12.20;1.00;;;;;;5037945;28;20252;-62
2022/06/13 02:21:14;;;;;;;7.00;3.70;;;12.20;1.00;;;;;;5038089;28;20202;-63
2022/06/13 02:23:48;;;;;;;8.10;3.67;;;12.20;1.00;;;;;;5038265;28;20565;-62
2022/06/13 02:26:20;;;;;;;8.63;3.60;;;12.20;1.00;;;;;;5037451;28;20676;-62
2022/06/13 02:28:52;;;;;;;9.50;4.00;;;12.20;1.00;;;;;;5037852;28;20212;-62
2022/06/13 02:31:24;;;;;;;7.10;3.60;;;12.20;1.00;;;;;;5037804;28;20648;-62
2022/06/13 02:33:58;;;;;;;7.30;3.93;;;12.20;1.00;;;;;;5037869;28;20625;-62
2022/06/13 02:36:31;;;;;;;8.43;3.63;;;12.20;1.00;;;;;;5037711;28;20210;-62
2022/06/13 02:39:02;;;;;;;8.20;3.63;;;12.20;1.00;;;;;;5037767;28;20264;-62
2022/06/13 02:41:36;;;;;;;9.50;3.67;;;12.20;99.90;;;;;;5037842;28;20198;-62
2022/06/13 02:44:09;;;;;;;11.57;3.27;;;12.20;99.90;;;;;;5037867;28;20209;-63
2022/06/13 02:46:40;;;;;;;7.53;3.40;;;12.20;99.90;;;;;;5037472;28;20822;-62
2022/06/13 02:49:13;;;;;;;8.97;3.80;;;12.10;99.90;;;;;;5036453;28;20210;-62
2022/06/13 02:51:44;;;;;;;6.37;3.60;;;12.10;1.00;;;;;;5034133;28;20226;-62
2022/06/13 02:54:17;;;;;;;6.37;3.50;;;12.20;1.00;;;;;;5034299;28;20685;-62
2022/06/13 02:59:52;;;;;;;9.50;4.17;;;12.10;1.00;;;;;;5034441;28;20216;-62
2022/06/13 03:02:25;;;;;;;7.90;3.33;;;12.10;1.00;;;;;;5034472;28;20260;-62
2022/06/13 03:04:59;;;;;;;9.43;4.40;;;12.10;1.00;;;;;;5034212;28;20760;-62
2022/06/13 03:07:35;;;;;;;10.07;3.77;;;12.10;1.00;;;;;;5034190;28;20207;-62
2022/06/13 03:10:10;;;;;;;6.17;3.83;;;12.10;33.10;;;;;;5034308;28;20217;-62
2022/06/13 03:12:43;;;;;;;6.90;3.80;;;12.00;87.10;;;;;;5034211;28;20226;-62
2022/06/13 03:15:19;;;;;;;6.60;3.63;;;12.10;99.90;;;;;;5033835;28;20275;-62
2022/06/13 03:17:51;;;;;;;9.03;4.17;;;12.10;99.90;;;;;;5034000;28;20279;-62
2022/06/13 03:20:26;;;;;;;13.53;4.00;;;12.10;99.90;;;;;;5034111;28;20202;-62
2022/06/13 03:22:56;;;;;;;10.17;3.77;;;12.10;99.90;;;;;;5034101;28;20202;-62
2022/06/13 03:25:28;;;;;;;9.60;4.10;;;12.00;99.90;;;;;;5033648;28;20292;-62
2022/06/13 03:27:59;;;;;;;6.47;3.63;;;12.10;99.90;;;;;;5033798;28;20213;-62
2022/06/13 03:30:31;;;;;;;9.57;3.70;;;12.10;1.00;;;;;;5033884;28;20203;-62
2022/06/13 03:35:52;;;;;;;9.53;4.03;;;12.20;1.00;;;;;;5033450;28;20229;-62
2022/06/13 03:38:23;;;;;;;9.27;3.73;;;12.30;1.00;;;;;;5033898;28;20681;-62
2022/06/13 03:40:53;;;;;;;7.20;3.77;;;12.30;99.90;;;;;;5033723;28;20280;-62
2022/06/13 03:43:24;;;;;;;12.37;4.10;;;12.30;99.90;;;;;;5033772;28;20199;-62
2022/06/13 03:45:56;;;;;;;11.80;3.80;;;12.30;99.90;;;;;;5033493;28;20296;-62
2022/06/13 03:48:28;;;;;;;9.80;3.87;;;12.40;99.90;;;;;;5033589;28;20250;-62
2022/06/13 03:51:00;;;;;;;8.77;4.50;;;12.40;99.90;;;;;;5033613;28;20384;-62
2022/06/13 03:53:32;;;;;;;11.33;4.20;;;12.40;99.90;;;;;;5033280;28;20709;-62
2022/06/13 03:56:06;;;;;;;11.87;4.60;;;12.40;99.90;;;;;;5034527;28;20230;-62
2022/06/13 03:58:38;;;;;;;11.10;4.63;;;12.50;99.90;;;;;;5035996;28;20732;-62
2022/06/13 04:01:12;;;;;;;9.70;3.97;;;12.40;99.90;;;;;;5035752;28;20214;-62
2022/06/13 04:03:39;;;;;;;7.53;3.90;;;12.50;99.90;;;;;;5034288;28;20256;-63
2022/06/13 04:06:28;;;;;;;10.30;3.67;;;12.50;99.90;;;;;;5033143;28;20325;-63
2022/06/13 04:08:56;;;;;;;7.93;4.03;;;12.50;99.90;;;;;;5033293;28;20369;-62
2022/06/13 04:11:30;;;;;;;11.27;4.00;;;12.50;99.90;;;;;;5032949;28;20264;-63
2022/06/13 04:14:02;;;;;;;8.40;3.40;;;12.50;99.90;;;;;;5033080;28;20280;-63
2022/06/13 04:16:42;;;;;;;10.37;3.90;;;12.50;99.90;;;;;;5032714;28;20222;-63
2022/06/13 04:19:27;;;;;;;12.10;4.73;;;12.50;99.90;;;;;;5032885;28;20260;-63
2022/06/13 04:22:02;;;;;;;6.83;4.00;;;12.50;99.90;;;;;;5033074;28;20579;-63
2022/06/13 04:24:43;;;;;;;10.37;4.43;;;12.50;99.90;;;;;;5032677;28;20762;-63
2022/06/13 04:27:17;;;;;;;6.57;3.60;;;12.50;99.90;;;;;;5032773;28;20215;-63
2022/06/13 04:29:48;;;;;;;11.00;4.30;;;12.50;99.90;;;;;;5032758;28;20214;-63
2022/06/13 04:32:23;;;;;;;9.03;4.33;;;12.50;99.90;;;;;;5032630;28;20230;-63
2022/06/13 04:34:52;;;;;;;12.43;4.50;;;12.60;99.90;;;;;;5032491;28;20226;-63
2022/06/13 04:37:21;;;;;;;11.47;4.27;;;12.60;99.90;;;;;;5032033;28;20241;-62
2022/06/13 04:39:51;;;;;;;13.90;4.37;;;12.70;99.90;;;;;;5030599;28;20210;-62
2022/06/13 04:42:21;;;;;;;8.57;4.77;;;12.80;99.90;;;;;;5032222;28;20260;-62
2022/06/13 04:44:50;;;;;;;10.20;4.47;;;12.80;99.90;;;;;;5031913;28;20689;-62
2022/06/13 04:47:18;;;;;;;12.10;4.13;;;12.90;99.90;;;;;;5032454;28;20203;-61
2022/06/13 04:49:51;;;;;;;8.40;4.37;;;12.90;99.90;;;;;;5032334;28;20209;-61
2022/06/13 04:52:20;;;;;;;6.83;4.07;;;12.90;99.90;;;;;;5032038;28;20286;-61
2022/06/13 04:54:52;;;;;;;11.33;4.10;;;13.00;99.90;;;;;;5032309;28;20265;-61
2022/06/13 04:57:19;;;;;;;15.23;4.43;;;13.00;66.50;;;;;;5031360;28;20274;-62
2022/06/13 04:59:47;;;;;;;9.67;4.30;;;13.10;59.70;;;;;;5032561;28;20206;-61
2022/06/13 05:02:18;;;;;;;11.60;4.40;;;13.10;42.30;;;;;;5031940;28;20207;-61
2022/06/13 05:04:46;;;;;;;9.67;4.37;;;13.20;99.90;;;;;;5032140;28;20226;-61
2022/06/13 05:07:15;;;;;;;10.57;4.53;;;13.20;99.90;;;;;;5031464;28;20261;-61
2022/06/13 05:09:44;;;;;;;7.73;3.80;;;13.20;99.90;;;;;;5031939;28;20671;-61
2022/06/13 05:12:16;;;;;;;12.50;5.13;;;13.10;99.90;;;;;;5031473;28;20223;-61
2022/06/13 05:14:48;;;;;;;9.20;4.30;;;13.10;28.70;;;;;;5031907;28;20318;-61
2022/06/13 05:17:40;;;;;;;12.13;4.90;;;13.00;99.90;;;;;;5031769;28;20213;-61
2022/06/13 05:20:14;;;;;;;10.13;4.50;;;13.00;99.90;;;;;;5029279;28;20458;-61
2022/06/13 05:22:53;;;;;;;11.13;5.17;;;13.00;1.00;;;;;;5032038;28;20206;-61
2022/06/13 05:25:33;;;;;;;9.67;4.47;;;12.90;1.00;;;;;;5031836;28;20245;-60
2022/06/13 05:28:01;;;;;;;12.27;5.70;;;13.00;1.00;;;;;;5031086;28;20233;-64
2022/06/13 05:30:29;;;;;;;11.73;5.57;;;13.00;24.30;;;;;;5031093;28;20617;-64
2022/06/13 05:32:56;;;;;;;11.00;5.93;;;13.20;66.70;;;;;;5031428;28;20278;-64
2022/06/13 05:35:26;;;;;;;16.40;5.43;;;13.30;95.20;;;;;;5031094;28;20721;-65
2022/06/13 05:37:55;;;;;;;15.63;6.87;;;13.40;96.60;;;;;;5031321;28;20217;-65
2022/06/13 05:40:24;;;;;;;12.83;5.90;;;13.40;97.70;;;;;;5031093;28;20215;-66
2022/06/13 05:42:51;;;;;;;18.27;6.27;;;13.50;99.90;;;;;;5031330;28;20208;-65
2022/06/13 05:45:22;;;;;;;9.53;6.23;;;13.50;99.90;;;;;;5030957;28;20233;-65
2022/06/13 05:47:52;;;;;;;12.37;6.57;;;13.50;99.90;;;;;;5031416;28;20213;-66
2022/06/13 05:50:24;;;;;;;10.87;6.60;;;13.50;99.90;;;;;;5031457;28;20238;-64
2022/06/13 05:52:52;;;;;;;12.73;6.30;;;13.40;99.90;;;;;;5021159;28;20230;-64
2022/06/13 05:55:20;;;;;;;12.13;6.00;;;13.30;99.90;;;;;;5017383;28;20590;-65
2022/06/13 05:57:46;;;;;;;8.00;5.87;;;13.30;99.90;;;;;;5011135;28;20211;-65
2022/06/13 06:00:19;;;;;;;16.17;6.20;;;13.30;99.90;;;;;;5011551;28;20761;-64
2022/06/13 06:02:47;;;;;;;13.83;6.00;;;13.20;99.90;;;;;;5027015;28;20262;-65
2022/06/13 06:05:14;;;;;;;16.20;6.77;;;13.20;99.90;;;;;;5031190;28;20232;-65
2022/06/13 06:07:41;;;;;;;10.33;6.70;;;13.10;99.90;;;;;;5030597;28;20210;-64
2022/06/13 06:10:13;;;;;;;14.67;7.83;;;13.20;99.90;;;;;;5030747;28;20207;-68
2022/06/13 06:12:40;;;;;;;15.53;7.23;;;13.20;99.90;;;;;;5030923;28;20283;-66
2022/06/13 06:15:07;;;;;;;13.87;6.53;;;13.20;99.90;;;;;;5030444;28;20265;-66
2022/06/13 06:17:34;;;;;;;14.40;7.67;;;13.30;99.90;;;;;;5030801;28;20248;-66
2022/06/13 06:20:02;;;;;;;16.20;7.00;;;13.50;99.90;;;;;;5030632;28;20260;-66
2022/06/13 06:22:29;;;;;;;13.27;6.60;;;13.60;99.90;;;;;;5030484;28;20291;-66
2022/06/13 06:24:56;;;;;;;14.37;6.77;;;13.80;99.90;;;;;;5032597;28;20283;-64
2022/06/13 06:27:23;;;;;;;19.47;6.97;;;13.90;99.90;;;;;;5034208;28;20209;-66
2022/06/13 06:29:49;;;;;;;12.73;6.83;;;14.00;99.90;;;;;;5034278;28;20232;-67
2022/06/13 06:32:16;;;;;;;10.97;6.17;;;14.20;99.90;;;;;;5034153;28;20562;-66
2022/06/13 06:34:42;;;;;;;14.07;6.07;;;14.20;99.90;;;;;;5034257;28;20635;-66
2022/06/13 06:37:10;;;;;;;12.33;5.97;;;14.20;99.90;;;;;;5033315;28;20735;-63
2022/06/13 06:39:37;;;;;;;12.50;6.10;;;14.20;99.90;;;;;;5034554;28;20272;-64
2022/06/13 06:42:04;;;;;;;9.30;5.33;;;14.30;99.90;;;;;;5034162;28;20202;-62
2022/06/13 06:44:31;;;;;;;10.73;5.73;;;14.40;99.90;;;;;;5034102;28;20229;-63
2022/06/13 06:46:58;;;;;;;10.03;5.23;;;14.50;99.90;;;;;;5033617;28;20256;-64
2022/06/13 06:49:24;;;;;;;13.33;5.93;;;14.60;99.90;;;;;;5033976;28;20210;-63
2022/06/13 06:51:51;;;;;;;15.40;5.87;;;14.80;99.90;;;;;;5033874;28;20210;-61
2022/06/13 06:59:55;;;;;;;8.10;3.80;;;15.10;99.90;;;;;;5033641;28;20209;-65
2022/06/13 07:02:23;;;;;;;9.33;3.67;;;15.20;99.90;;;;;;5034160;28;20210;-63
2022/06/13 07:04:52;;;;;;;7.73;3.93;;;15.30;99.90;;;;;;5033329;28;20320;-63
2022/06/13 07:07:18;;;;;;;7.73;3.37;;;15.20;99.90;;;;;;5033469;28;20297;-63
2022/06/13 07:09:47;;;;;;;9.77;4.37;;;15.20;99.90;;;;;;5033476;28;20202;-62
2022/06/13 07:12:14;;;;;;;11.67;5.07;;;15.30;99.90;;;;;;5033631;28;20210;-63
2022/06/13 07:14:40;;;;;;;13.77;5.47;;;15.50;99.90;;;;;;5032888;28;20234;-62
2022/06/13 07:17:09;;;;;;;15.13;5.90;;;15.70;99.90;;;;;;5033259;28;20203;-63
2022/06/13 07:19:36;;;;;;;9.73;5.57;;;15.80;99.90;;;;;;5033682;28;20673;-63
2022/06/13 07:22:04;;;;;;;14.13;7.33;;;15.90;99.70;;;;;;5033491;28;20214;-63
2022/06/13 07:24:32;;;;;;;11.73;7.07;;;16.10;99.90;;;;;;5033308;28;20222;-63
2022/06/13 07:27:01;;;;;;;15.27;7.33;;;16.10;91.80;;;;;;5032611;28;20293;-63
2022/06/13 07:29:28;;;;;;;12.07;8.33;;;16.20;55.20;;;;;;5033222;28;20217;-63
2022/06/13 07:31:58;;;;;;;20.10;10.57;;;16.20;19.90;;;;;;5033338;28;20264;-63
2022/06/13 07:34:28;;;;;;;17.43;9.50;;;16.50;55.50;;;;;;5032886;28;20230;-68
2022/06/13 07:36:57;;;;;;;20.00;10.27;;;16.50;11.60;;;;;;5032411;28;20264;-66
2022/06/13 07:39:23;;;;;;;16.90;9.27;;;16.70;1.00;;;;;;5032951;28;20568;-65
2022/06/13 07:41:51;;;;;;;19.70;10.43;;;16.70;1.00;;;;;;5033270;28;20743;-64
2022/06/13 07:44:22;;;;;;;20.07;10.53;;;16.90;1.00;;;;;;5032510;28;20202;-65
2022/06/13 07:46:50;;;;;;;19.87;11.90;;;16.90;1.00;;;;;;5033037;28;20210;-65
2022/06/13 07:49:17;;;;;;;23.53;12.57;;;16.80;1.00;;;;;;5032600;28;20348;-63
2022/06/13 07:51:44;;;;;;;20.17;12.33;;;17.10;1.00;;;;;;5033069;28;20206;-64
2022/06/13 07:54:11;;;;;;;21.53;12.03;;;17.20;1.00;;;;;;5032705;28;20227;-65
2022/06/13 07:56:38;;;;;;;21.73;12.63;;;17.10;1.00;;;;;;5032415;28;20206;-65
2022/06/13 07:59:06;;;;;;;22.53;13.17;;;17.10;1.00;;;;;;5032946;28;20237;-66
2022/06/13 08:01:37;;;;;;;24.47;12.73;;;17.20;1.00;;;;;;5032574;28;20228;-64
2022/06/13 08:04:04;;;;;;;20.50;12.37;;;17.40;1.00;;;;;;5032524;28;20208;-64
2022/06/13 08:06:31;;;;;;;29.40;13.83;;;17.50;99.90;;;;;;5032825;28;20207;-64
2022/06/13 08:08:58;;;;;;;22.80;12.53;;;17.90;1.00;;;;;;5032761;28;20210;-64
2022/06/13 08:11:31;;;;;;;21.27;12.57;;;18.30;1.00;;;;;;5032546;28;20784;-64
2022/06/13 08:13:58;;;;;;;26.57;14.17;;;18.50;53.00;;;;;;5032365;28;20284;-64
2022/06/13 08:16:25;;;;;;;28.13;15.37;;;18.10;99.90;;;;;;5032164;28;20230;-64
2022/06/13 08:18:53;;;;;;;19.90;12.50;;;18.10;99.90;;;;;;5032255;28;20240;-65
2022/06/13 08:21:21;;;;;;;21.40;12.70;;;18.00;99.90;;;;;;5034365;28;20217;-61
2022/06/13 08:23:48;;;;;;;24.53;13.73;;;17.90;1.00;;;;;;5037421;28;20325;-61
2022/06/13 08:26:16;;;;;;;25.73;14.23;;;17.70;99.90;;;;;;5037106;28;20227;-62
2022/06/13 08:28:42;;;;;;;27.03;15.67;;;17.60;99.90;;;;;;5033541;28;20210;-62
2022/06/13 08:31:12;;;;;;;24.83;14.37;;;17.60;99.90;;;;;;5032038;28;20206;-61
2022/06/13 08:33:39;;;;;;;26.30;14.13;;;17.40;46.90;;;;;;5031894;28;20623;-62
2022/06/13 08:36:08;;;;;;;23.63;13.77;;;17.40;99.90;;;;;;5031139;28;20280;-63
2022/06/13 08:38:35;;;;;;;23.73;13.30;;;17.80;1.00;;;;;;5032335;28;20206;-63
2022/06/13 08:41:08;;;;;;;22.83;13.03;;;18.10;99.90;;;;;;5031555;28;20256;-63
2022/06/13 08:44:01;;;;;;;20.40;10.60;;;18.30;99.90;;;;;;5032000;28;20206;-62
2022/06/13 08:46:34;;;;;;;13.97;10.10;;;18.30;1.00;;;;;;5031534;28;20237;-63
2022/06/13 08:49:07;;;;;;;16.27;10.23;;;18.00;1.00;;;;;;5031101;28;20705;-62
2022/06/13 08:51:44;;;;;;;16.90;10.23;;;17.60;1.00;;;;;;5031709;28;20325;-63
2022/06/13 08:54:15;;;;;;;14.80;9.90;;;17.60;1.00;;;;;;5031361;28;20287;-61
2022/06/13 08:56:44;;;;;;;19.13;11.07;;;17.60;1.00;;;;;;5031163;28;20206;-62
2022/06/13 08:59:25;;;;;;;14.30;10.00;;;17.50;1.00;;;;;;5032273;28;20206;-62
2022/06/13 09:01:57;;;;;;;15.93;10.13;;;17.40;1.00;;;;;;5031749;28;20217;-62
2022/06/13 09:04:27;;;;;;;16.37;8.93;;;17.30;1.00;;;;;;5031122;28;20222;-62
2022/06/13 09:07:02;;;;;;;14.43;8.27;;;17.40;1.00;;;;;;5031335;28;20681;-64
2022/06/13 09:09:36;;;;;;;15.20;9.40;;;17.40;99.90;;;;;;5031311;28;20220;-64
2022/06/13 09:12:08;;;;;;;16.90;8.80;;;17.60;1.00;;;;;;5031889;28;20210;-63
2022/06/13 09:14:36;;;;;;;18.53;8.23;;;17.70;1.00;;;;;;5031158;28;20336;-62
2022/06/13 09:17:10;;;;;;;13.37;8.10;;;18.00;1.00;;;;;;5031424;28;20241;-63
2022/06/13 09:19:47;;;;;;;16.37;8.07;;;18.10;1.00;;;;;;5031037;28;20734;-63
2022/06/13 09:22:22;;;;;;;17.03;8.10;;;18.20;1.00;;;;;;5031387;28;20214;-65
2022/06/13 09:24:57;;;;;;;13.20;6.70;;;18.40;1.00;;;;;;5031413;28;20273;-65
2022/06/13 09:27:29;;;;;;;11.90;7.03;;;18.20;99.90;;;;;;5031136;28;20260;-65
2022/06/13 09:30:02;;;;;;;15.13;6.63;;;18.10;99.90;;;;;;5031193;28;20256;-65
2022/06/13 09:32:34;;;;;;;11.00;6.30;;;17.90;99.90;;;;;;5031107;28;20742;-66
2022/06/13 09:35:09;;;;;;;15.13;7.17;;;17.70;99.90;;;;;;5031087;28;20230;-63
2022/06/13 09:37:43;;;;;;;11.00;6.57;;;17.60;99.90;;;;;;5030792;28;20292;-63
2022/06/13 09:40:12;;;;;;;17.17;7.43;;;17.50;99.90;;;;;;5030808;28;20216;-62
2022/06/13 09:42:55;;;;;;;11.93;7.33;;;17.60;99.90;;;;;;5030708;28;20211;-64
2022/06/13 09:45:40;;;;;;;14.53;7.50;;;17.90;99.90;;;;;;5031132;28;20226;-65
2022/06/13 09:48:19;;;;;;;16.30;7.80;;;18.00;99.90;;;;;;5030678;28;20206;-64
2022/06/13 09:50:51;;;;;;;14.37;6.90;;;17.80;99.90;;;;;;5031102;28;20293;-63
2022/06/13 09:53:29;;;;;;;12.97;5.70;;;17.80;99.90;;;;;;5031091;28;20202;-63
2022/06/13 09:56:02;;;;;;;11.80;4.63;;;18.00;99.90;;;;;;5030511;28;20283;-59
2022/06/13 09:58:43;;;;;;;9.30;4.57;;;18.00;99.90;;;;;;5032588;28;20219;-63
2022/06/13 10:01:16;;;;;;;13.23;5.03;;;17.80;99.90;;;;;;5035087;28;20209;-62
2022/06/13 10:03:54;;;;;;;10.30;4.53;;;17.70;99.90;;;;;;5034945;28;20781;-59
2022/06/13 10:06:26;;;;;;;8.33;4.27;;;17.70;99.90;;;;;;5034455;28;20225;-62
2022/06/13 10:09:08;;;;;;;10.07;4.80;;;17.50;99.90;;;;;;5034979;28;20677;-62
2022/06/13 10:11:42;;;;;;;13.73;4.37;;;17.60;99.90;;;;;;5034235;28;20236;-62
2022/06/13 10:14:30;;;;;;;8.83;3.70;;;17.80;99.90;;;;;;5034587;28;20288;-63
2022/06/13 10:17:11;;;;;;;10.77;4.23;;;18.10;99.90;;;;;;5034395;28;20297;-66
2022/06/13 10:19:49;;;;;;;12.80;3.50;;;18.30;99.90;;;;;;5034819;28;20344;-67
2022/06/13 10:22:23;;;;;;;8.53;2.67;;;18.40;99.90;;;;;;5034166;28;20213;-66
2022/06/13 10:25:03;;;;;;;6.13;2.40;;;18.60;99.90;;;;;;5034704;28;20222;-67
2022/06/13 10:27:38;;;;;;;7.37;2.30;;;18.90;99.90;;;;;;5034041;28;20214;-67
2022/06/13 10:30:27;;;;;;;7.07;2.73;;;19.30;99.90;;;;;;5034539;28;20237;-64
2022/06/13 10:33:23;;;;;;;6.77;2.23;;;19.60;99.90;;;;;;5034694;28;20225;-66
2022/06/13 10:35:52;;;;;;;7.70;2.00;;;19.70;99.90;;;;;;5012134;28;20230;-66
2022/06/13 10:38:32;;;;;;;7.57;2.13;;;19.70;99.90;;;;;;5034256;28;20214;-66
2022/06/13 10:41:00;;;;;;;4.93;2.07;;;19.60;99.90;;;;;;5034037;28;20252;-65
2022/06/13 10:43:27;;;;;;;7.83;2.20;;;19.40;99.90;;;;;;5033948;28;20206;-66
2022/06/13 10:45:54;;;;;;;5.77;2.10;;;19.10;99.90;;;;;;5033404;28;20381;-65
2022/06/13 10:48:25;;;;;;;4.13;2.10;;;19.00;99.90;;;;;;5034162;28;20620;-65
2022/06/13 10:50:56;;;;;;;5.27;2.53;;;19.00;99.90;;;;;;5033024;28;20210;-67
2022/06/13 10:53:27;;;;;;;5.00;2.40;;;19.10;99.90;;;;;;5033514;28;20612;-65
2022/06/13 10:55:56;;;;;;;6.33;3.07;;;19.30;99.90;;;;;;5033759;28;20230;-68
2022/06/13 10:58:27;;;;;;;7.37;2.23;;;19.40;99.90;;;;;;5034179;28;20206;-68
2022/06/13 11:01:04;;;;;;;5.43;1.90;;;19.30;99.90;;;;;;5034133;28;20214;-64
2022/06/13 11:03:31;;;;;;;3.83;1.87;;;19.50;99.90;;;;;;5033203;28;20213;-63
2022/06/13 11:06:02;;;;;;;7.40;2.43;;;19.60;99.90;;;;;;5033079;28;20760;-64
2022/06/13 11:08:29;;;;;;;5.03;1.90;;;19.80;99.90;;;;;;5033712;28;20280;-67
2022/06/13 11:10:58;;;;;;;8.10;2.57;;;19.80;99.90;;;;;;5032604;28;20256;-67
2022/06/13 11:13:28;;;;;;;5.30;1.87;;;19.70;99.90;;;;;;5033055;28;20269;-66
2022/06/13 11:24:36;;;;;;;6.47;1.90;;;18.90;99.90;;;;;;5032957;28;20628;-66
2022/06/13 11:30:18;;;;;;;4.27;1.57;;;18.60;99.90;;;;;;5033351;28;20525;-64
2022/06/13 11:32:56;;;;;;;6.53;1.47;;;19.10;99.90;;;;;;5033464;28;20691;-61
2022/06/13 11:35:31;;;;;;;3.07;1.37;;;19.20;99.90;;;;;;5033075;28;20321;-64
2022/06/13 11:38:14;;;;;;;6.07;1.40;;;19.30;99.90;;;;;;5033001;28;20218;-64
2022/06/13 11:40:40;;;;;;;2.93;1.30;;;19.50;99.90;;;;;;5013358;28;20694;-65
2022/06/13 11:43:19;;;;;;;4.00;1.70;;;19.70;99.90;;;;;;5013039;28;20207;-65
2022/06/13 11:45:55;;;;;;;10.63;1.40;;;19.60;99.90;;;;;;5013468;28;20310;-64
2022/06/13 11:48:22;;;;;;;3.63;1.03;;;19.40;99.90;;;;;;5013113;28;20559;-64
2022/06/13 11:50:54;;;;;;;4.93;1.10;;;19.30;99.90;;;;;;5022049;28;20210;-64
2022/06/13 11:53:37;;;;;;;3.77;1.10;;;19.10;99.90;;;;;;5032556;28;20210;-64
2022/06/13 11:56:09;;;;;;;2.63;0.90;;;18.90;99.90;;;;;;5033788;28;20226;-64
2022/06/13 11:58:40;;;;;;;3.53;1.03;;;18.80;99.90;;;;;;5032957;28;20202;-66
2022/06/13 12:01:19;;;;;;;3.33;0.90;;;19.00;99.90;;;;;;5031504;28;20581;-63
2022/06/13 12:03:58;;;;;;;4.37;1.00;;;19.20;99.90;;;;;;5032338;28;20672;-63
2022/06/13 12:06:25;;;;;;;2.63;0.90;;;19.00;99.90;;;;;;5032086;28;20324;-63
2022/06/13 12:09:03;;;;;;;5.63;1.00;;;19.10;99.90;;;;;;5032638;28;20613;-63
2022/06/13 12:11:30;;;;;;;4.53;0.80;;;19.50;99.90;;;;;;5032268;28;20557;-65
2022/06/13 12:13:59;;;;;;;1.47;0.80;;;20.00;99.90;;;;;;5032376;28;20681;-63
2022/06/13 12:16:35;;;;;;;3.73;0.90;;;20.50;99.90;;;;;;5031800;28;20272;-64
2022/06/13 12:19:11;;;;;;;3.50;0.87;;;21.10;99.90;;;;;;5032409;28;20213;-63
2022/06/13 12:21:44;;;;;;;3.70;1.00;;;20.90;99.90;;;;;;5032039;28;20206;-63
2022/06/13 12:24:18;;;;;;;2.37;0.73;;;20.50;99.90;;;;;;5032288;28;20232;-64
2022/06/13 12:26:55;;;;;;;1.30;0.70;;;20.00;99.90;;;;;;5032148;28;20304;-63
2022/06/13 12:29:40;;;;;;;3.97;0.87;;;19.50;99.90;;;;;;5032127;28;20580;-63
2022/06/13 12:32:16;;;;;;;1.70;0.70;;;19.60;99.90;;;;;;5032295;28;20253;-63
2022/06/13 12:34:50;;;;;;;1.97;0.63;;;19.80;99.90;;;;;;5031793;28;20765;-64
2022/06/13 12:37:26;;;;;;;2.77;0.57;;;19.90;99.90;;;;;;5031939;28;20257;-60
2022/06/13 12:40:00;;;;;;;1.33;0.50;;;20.10;99.90;;;;;;5032057;28;20216;-59
2022/06/13 12:42:47;;;;;;;1.10;0.50;;;20.50;99.90;;;;;;5032239;28;20265;-57
2022/06/13 12:45:48;;;;;;;4.10;0.67;;;20.60;99.90;;;;;;5031395;28;20226;-58
2022/06/13 12:48:30;;;;;;;2.40;1.07;;;20.80;99.90;;;;;;4999037;28;20206;-57
2022/06/13 12:51:16;;;;;;;1.73;0.50;;;20.90;99.90;;;;;;5033439;28;20213;-66
2022/06/13 12:54:31;;;;;;;0.90;0.60;;;21.00;99.90;;;;;;5035634;28;20206;-61
2022/06/13 12:57:04;;;;;;;5.30;0.90;;;21.20;99.90;;;;;;5024113;28;20557;-61
2022/06/13 12:59:46;;;;;;;1.13;0.60;;;20.60;99.90;;;;;;5032117;28;20220;-58
2022/06/13 13:02:25;;;;;;;0.93;0.50;;;20.30;99.90;;;;;;5031395;28;20221;-61
2022/06/13 13:05:11;;;;;;;3.93;0.60;;;20.20;99.90;;;;;;5031614;28;20316;-61
2022/06/13 13:07:46;;;;;;;1.97;0.60;;;20.30;99.90;;;;;;5030974;28;20202;-61
2022/06/13 13:10:27;;;;;;;2.60;0.80;;;20.40;99.90;;;;;;5031539;28;20260;-61
2022/06/13 13:13:18;;;;;;;4.13;0.80;;;20.50;99.90;;;;;;5030776;28;20236;-61
2022/06/13 13:15:54;;;;;;;0.70;0.50;;;20.50;99.90;;;;;;5031284;28;20238;-62
2022/06/13 13:18:33;;;;;;;1.00;0.53;;;20.10;99.90;;;;;;5031076;28;20239;-61
2022/06/13 13:21:07;;;;;;;2.20;0.50;;;20.30;99.90;;;;;;5031657;28;20256;-64
2022/06/13 13:23:43;;;;;;;3.00;0.70;;;20.40;99.90;;;;;;5030688;28;20210;-65
2022/06/13 13:26:20;;;;;;;3.93;0.77;;;20.60;99.90;;;;;;5031004;28;20704;-65
2022/06/13 13:29:00;;;;;;;2.03;0.77;;;20.60;99.90;;;;;;5031375;28;20213;-64
2022/06/13 13:31:43;;;;;;;2.07;0.63;;;20.40;99.90;;;;;;5031338;28;20256;-64
2022/06/13 13:34:33;;;;;;;2.50;0.77;;;19.90;99.90;;;;;;5030714;28;20634;-64
2022/06/13 13:37:06;;;;;;;3.50;0.90;;;19.60;99.90;;;;;;5030953;28;20252;-64